Santa Fe Springs, California
Current Conditions -  °F | °C
As of 1:53 PM on Wednesday 22 Oct 2014 (Local Time) from KFUL Reporting Station
Clear Clear  
Wind Chill: 84°   Ceiling: Unl
Heat Index: 84°   Visibility: 10mi
Dew Point: 59°   Wind: 10mph
Humidity: 43%   Direction: 210°SSW
Pressure: 29.88"   Gusts: NA
Location:  33.95°N, 118.08°W
Report Text: KFUL 222053Z 21009KT 10SM CLR 29/15 A2988 RMK AO2 SLP116 T02890150 58020
Loading
Personal Weather Stations






























Interactive Weather Map
Tropical Storm Tracking
New forecast layout! Learn more

10-Day Weather Forecast

Advertisements
Track Severe Weather on mobile